sensor_id;sensor_type;location;lat;lon;timestamp;P1;durP1;ratioP1;P2;durP2;ratioP2
6131;SDS011;3097;42.692;23.278;2023-05-23T00:00:22;13.40;;;9.30;;
6131;SDS011;3097;42.692;23.278;2023-05-23T00:02:47;13.07;;;10.17;;
6131;SDS011;3097;42.692;23.278;2023-05-23T00:05:13;11.73;;;9.57;;
6131;SDS011;3097;42.692;23.278;2023-05-23T00:07:41;12.13;;;9.10;;
6131;SDS011;3097;42.692;23.278;2023-05-23T00:10:08;11.97;;;9.33;;
6131;SDS011;3097;42.692;23.278;2023-05-23T00:12:34;10.77;;;8.53;;
6131;SDS011;3097;42.692;23.278;2023-05-23T00:15:01;10.83;;;8.33;;
6131;SDS011;3097;42.692;23.278;2023-05-23T00:17:28;12.13;;;8.50;;
6131;SDS011;3097;42.692;23.278;2023-05-23T00:19:53;10.47;;;8.33;;
6131;SDS011;3097;42.692;23.278;2023-05-23T00:22:20;12.13;;;9.23;;
6131;SDS011;3097;42.692;23.278;2023-05-23T00:24:45;9.10;;;7.97;;
6131;SDS011;3097;42.692;23.278;2023-05-23T00:27:11;9.93;;;8.83;;
6131;SDS011;3097;42.692;23.278;2023-05-23T00:29:36;11.33;;;8.30;;
6131;SDS011;3097;42.692;23.278;2023-05-23T00:32:02;12.30;;;8.53;;
6131;SDS011;3097;42.692;23.278;2023-05-23T00:34:27;10.33;;;8.43;;
6131;SDS011;3097;42.692;23.278;2023-05-23T00:36:53;10.33;;;7.77;;
6131;SDS011;3097;42.692;23.278;2023-05-23T00:39:18;9.37;;;7.90;;
6131;SDS011;3097;42.692;23.278;2023-05-23T00:41:50;9.87;;;7.67;;
6131;SDS011;3097;42.692;23.278;2023-05-23T00:44:16;10.10;;;8.27;;
6131;SDS011;3097;42.692;23.278;2023-05-23T00:46:42;10.67;;;7.90;;
6131;SDS011;3097;42.692;23.278;2023-05-23T00:49:11;10.87;;;7.73;;
6131;SDS011;3097;42.692;23.278;2023-05-23T00:51:37;10.50;;;8.07;;
6131;SDS011;3097;42.692;23.278;2023-05-23T00:54:05;10.93;;;8.27;;
6131;SDS011;3097;42.692;23.278;2023-05-23T00:56:31;12.70;;;7.30;;
6131;SDS011;3097;42.692;23.278;2023-05-23T00:58:57;9.23;;;6.97;;
6131;SDS011;3097;42.692;23.278;2023-05-23T01:01:24;9.97;;;8.10;;
6131;SDS011;3097;42.692;23.278;2023-05-23T01:03:51;10.90;;;8.23;;
6131;SDS011;3097;42.692;23.278;2023-05-23T01:06:17;10.03;;;8.07;;
6131;SDS011;3097;42.692;23.278;2023-05-23T01:08:42;11.77;;;8.93;;
6131;SDS011;3097;42.692;23.278;2023-05-23T01:11:13;14.53;;;10.53;;
6131;SDS011;3097;42.692;23.278;2023-05-23T01:14:01;15.97;;;12.27;;
6131;SDS011;3097;42.692;23.278;2023-05-23T01:16:34;17.57;;;11.47;;
6131;SDS011;3097;42.692;23.278;2023-05-23T01:21:54;14.97;;;10.77;;
6131;SDS011;3097;42.692;23.278;2023-05-23T01:24:31;16.37;;;10.77;;
6131;SDS011;3097;42.692;23.278;2023-05-23T01:27:10;14.83;;;11.10;;
6131;SDS011;3097;42.692;23.278;2023-05-23T01:29:44;17.57;;;11.07;;
6131;SDS011;3097;42.692;23.278;2023-05-23T01:32:13;15.17;;;10.87;;
6131;SDS011;3097;42.692;23.278;2023-05-23T01:34:40;15.83;;;11.50;;
6131;SDS011;3097;42.692;23.278;2023-05-23T01:37:07;14.67;;;11.50;;
6131;SDS011;3097;42.692;23.278;2023-05-23T01:39:39;16.87;;;11.67;;
6131;SDS011;3097;42.692;23.278;2023-05-23T01:42:04;20.00;;;11.17;;
6131;SDS011;3097;42.692;23.278;2023-05-23T01:44:31;14.87;;;10.97;;
6131;SDS011;3097;42.692;23.278;2023-05-23T01:46:59;14.23;;;10.70;;
6131;SDS011;3097;42.692;23.278;2023-05-23T01:49:28;15.33;;;11.17;;
6131;SDS011;3097;42.692;23.278;2023-05-23T01:51:55;18.73;;;11.10;;
6131;SDS011;3097;42.692;23.278;2023-05-23T01:54:20;16.77;;;10.77;;
6131;SDS011;3097;42.692;23.278;2023-05-23T01:56:46;16.73;;;11.27;;
6131;SDS011;3097;42.692;23.278;2023-05-23T01:59:12;13.63;;;10.00;;
6131;SDS011;3097;42.692;23.278;2023-05-23T02:01:38;12.80;;;9.63;;
6131;SDS011;3097;42.692;23.278;2023-05-23T02:04:03;15.07;;;9.50;;
6131;SDS011;3097;42.692;23.278;2023-05-23T02:06:29;14.23;;;10.10;;
6131;SDS011;3097;42.692;23.278;2023-05-23T02:08:55;16.83;;;10.30;;
6131;SDS011;3097;42.692;23.278;2023-05-23T02:11:21;14.87;;;9.20;;
6131;SDS011;3097;42.692;23.278;2023-05-23T02:13:46;12.53;;;9.20;;
6131;SDS011;3097;42.692;23.278;2023-05-23T02:16:12;13.43;;;9.07;;
6131;SDS011;3097;42.692;23.278;2023-05-23T02:18:38;12.53;;;8.57;;
6131;SDS011;3097;42.692;23.278;2023-05-23T02:21:06;15.30;;;9.13;;
6131;SDS011;3097;42.692;23.278;2023-05-23T02:23:31;14.87;;;8.63;;
6131;SDS011;3097;42.692;23.278;2023-05-23T02:25:57;12.00;;;8.90;;
6131;SDS011;3097;42.692;23.278;2023-05-23T02:28:22;11.47;;;9.23;;
6131;SDS011;3097;42.692;23.278;2023-05-23T02:30:48;12.50;;;8.87;;
6131;SDS011;3097;42.692;23.278;2023-05-23T02:33:13;12.20;;;8.47;;
6131;SDS011;3097;42.692;23.278;2023-05-23T02:35:40;11.53;;;8.97;;
6131;SDS011;3097;42.692;23.278;2023-05-23T02:38:06;10.23;;;8.30;;
6131;SDS011;3097;42.692;23.278;2023-05-23T02:40:31;10.27;;;8.93;;
6131;SDS011;3097;42.692;23.278;2023-05-23T02:42:57;12.70;;;8.50;;
6131;SDS011;3097;42.692;23.278;2023-05-23T02:45:22;11.20;;;7.90;;
6131;SDS011;3097;42.692;23.278;2023-05-23T02:47:48;10.93;;;8.50;;
6131;SDS011;3097;42.692;23.278;2023-05-23T02:50:13;11.97;;;8.37;;
6131;SDS011;3097;42.692;23.278;2023-05-23T02:52:40;12.30;;;8.30;;
6131;SDS011;3097;42.692;23.278;2023-05-23T02:55:06;12.33;;;9.53;;
6131;SDS011;3097;42.692;23.278;2023-05-23T02:57:32;12.40;;;9.27;;
6131;SDS011;3097;42.692;23.278;2023-05-23T02:59:58;10.33;;;8.50;;
6131;SDS011;3097;42.692;23.278;2023-05-23T03:02:23;12.50;;;8.73;;
6131;SDS011;3097;42.692;23.278;2023-05-23T03:04:49;9.87;;;8.67;;
6131;SDS011;3097;42.692;23.278;2023-05-23T03:07:14;12.03;;;8.60;;
6131;SDS011;3097;42.692;23.278;2023-05-23T03:09:40;11.43;;;8.70;;
6131;SDS011;3097;42.692;23.278;2023-05-23T03:12:05;10.83;;;7.40;;
6131;SDS011;3097;42.692;23.278;2023-05-23T03:14:31;10.93;;;8.10;;
6131;SDS011;3097;42.692;23.278;2023-05-23T03:16:56;9.00;;;7.53;;
6131;SDS011;3097;42.692;23.278;2023-05-23T03:19:22;8.27;;;7.00;;
6131;SDS011;3097;42.692;23.278;2023-05-23T03:21:48;8.70;;;7.00;;
6131;SDS011;3097;42.692;23.278;2023-05-23T03:24:15;7.43;;;6.73;;
6131;SDS011;3097;42.692;23.278;2023-05-23T03:26:40;7.03;;;6.30;;
6131;SDS011;3097;42.692;23.278;2023-05-23T03:29:06;7.13;;;6.43;;
6131;SDS011;3097;42.692;23.278;2023-05-23T03:31:31;7.03;;;6.33;;
6131;SDS011;3097;42.692;23.278;2023-05-23T03:33:56;7.83;;;6.93;;
6131;SDS011;3097;42.692;23.278;2023-05-23T03:36:22;12.47;;;6.90;;
6131;SDS011;3097;42.692;23.278;2023-05-23T03:38:50;10.90;;;7.50;;
6131;SDS011;3097;42.692;23.278;2023-05-23T03:41:17;9.80;;;7.67;;
6131;SDS011;3097;42.692;23.278;2023-05-23T03:43:43;12.03;;;8.77;;
6131;SDS011;3097;42.692;23.278;2023-05-23T03:46:08;13.30;;;9.73;;
6131;SDS011;3097;42.692;23.278;2023-05-23T03:48:36;15.30;;;10.70;;
6131;SDS011;3097;42.692;23.278;2023-05-23T03:51:02;12.53;;;9.53;;
6131;SDS011;3097;42.692;23.278;2023-05-23T03:53:27;12.13;;;9.40;;
6131;SDS011;3097;42.692;23.278;2023-05-23T03:55:52;14.07;;;10.40;;
6131;SDS011;3097;42.692;23.278;2023-05-23T03:58:18;14.97;;;10.53;;
6131;SDS011;3097;42.692;23.278;2023-05-23T04:00:44;10.67;;;9.13;;
6131;SDS011;3097;42.692;23.278;2023-05-23T04:03:13;13.23;;;9.10;;
6131;SDS011;3097;42.692;23.278;2023-05-23T04:05:39;14.73;;;9.67;;
6131;SDS011;3097;42.692;23.278;2023-05-23T04:08:05;14.47;;;9.93;;
6131;SDS011;3097;42.692;23.278;2023-05-23T04:10:30;12.00;;;9.23;;
6131;SDS011;3097;42.692;23.278;2023-05-23T04:12:56;15.63;;;10.03;;
6131;SDS011;3097;42.692;23.278;2023-05-23T04:15:22;15.00;;;10.50;;
6131;SDS011;3097;42.692;23.278;2023-05-23T04:17:48;15.97;;;10.37;;
6131;SDS011;3097;42.692;23.278;2023-05-23T04:20:15;15.37;;;9.83;;
6131;SDS011;3097;42.692;23.278;2023-05-23T04:22:41;12.80;;;10.00;;
6131;SDS011;3097;42.692;23.278;2023-05-23T04:25:08;13.57;;;9.13;;
6131;SDS011;3097;42.692;23.278;2023-05-23T04:27:34;28.93;;;14.30;;
6131;SDS011;3097;42.692;23.278;2023-05-23T04:29:59;37.90;;;19.93;;
6131;SDS011;3097;42.692;23.278;2023-05-23T04:32:26;24.10;;;14.00;;
6131;SDS011;3097;42.692;23.278;2023-05-23T04:34:52;15.77;;;10.40;;
6131;SDS011;3097;42.692;23.278;2023-05-23T04:37:18;13.43;;;9.70;;
6131;SDS011;3097;42.692;23.278;2023-05-23T04:39:46;11.60;;;9.03;;
6131;SDS011;3097;42.692;23.278;2023-05-23T04:42:12;11.03;;;9.23;;
6131;SDS011;3097;42.692;23.278;2023-05-23T04:44:38;11.80;;;9.03;;
6131;SDS011;3097;42.692;23.278;2023-05-23T04:47:03;12.30;;;8.77;;
6131;SDS011;3097;42.692;23.278;2023-05-23T04:49:29;21.80;;;13.83;;
6131;SDS011;3097;42.692;23.278;2023-05-23T04:51:58;12.70;;;10.37;;
6131;SDS011;3097;42.692;23.278;2023-05-23T04:54:23;10.03;;;8.20;;
6131;SDS011;3097;42.692;23.278;2023-05-23T04:56:49;12.17;;;9.47;;
6131;SDS011;3097;42.692;23.278;2023-05-23T04:59:14;14.30;;;9.67;;
6131;SDS011;3097;42.692;23.278;2023-05-23T05:01:40;16.23;;;9.57;;
6131;SDS011;3097;42.692;23.278;2023-05-23T05:04:05;12.53;;;8.90;;
6131;SDS011;3097;42.692;23.278;2023-05-23T05:06:31;11.80;;;8.50;;
6131;SDS011;3097;42.692;23.278;2023-05-23T05:08:56;11.80;;;8.80;;
6131;SDS011;3097;42.692;23.278;2023-05-23T05:11:22;16.23;;;9.07;;
6131;SDS011;3097;42.692;23.278;2023-05-23T05:13:50;11.60;;;8.90;;
6131;SDS011;3097;42.692;23.278;2023-05-23T05:16:16;14.10;;;9.80;;
6131;SDS011;3097;42.692;23.278;2023-05-23T05:18:41;13.57;;;9.67;;
6131;SDS011;3097;42.692;23.278;2023-05-23T05:21:06;13.60;;;9.50;;
6131;SDS011;3097;42.692;23.278;2023-05-23T05:23:32;12.17;;;8.60;;
6131;SDS011;3097;42.692;23.278;2023-05-23T05:25:58;15.43;;;10.63;;
6131;SDS011;3097;42.692;23.278;2023-05-23T05:28:24;14.53;;;11.00;;
6131;SDS011;3097;42.692;23.278;2023-05-23T05:30:50;19.00;;;11.30;;
6131;SDS011;3097;42.692;23.278;2023-05-23T05:33:18;13.30;;;10.47;;
6131;SDS011;3097;42.692;23.278;2023-05-23T05:35:44;16.80;;;10.97;;
6131;SDS011;3097;42.692;23.278;2023-05-23T05:38:10;16.43;;;11.13;;
6131;SDS011;3097;42.692;23.278;2023-05-23T05:40:35;14.27;;;10.70;;
6131;SDS011;3097;42.692;23.278;2023-05-23T05:43:01;15.07;;;10.53;;
6131;SDS011;3097;42.692;23.278;2023-05-23T05:45:26;14.50;;;10.70;;
6131;SDS011;3097;42.692;23.278;2023-05-23T05:47:52;14.27;;;10.93;;
6131;SDS011;3097;42.692;23.278;2023-05-23T05:50:17;14.93;;;10.57;;
6131;SDS011;3097;42.692;23.278;2023-05-23T05:52:44;15.03;;;10.13;;
6131;SDS011;3097;42.692;23.278;2023-05-23T05:55:10;14.20;;;10.90;;
6131;SDS011;3097;42.692;23.278;2023-05-23T05:57:36;15.87;;;11.00;;
6131;SDS011;3097;42.692;23.278;2023-05-23T06:00:12;19.83;;;10.53;;
6131;SDS011;3097;42.692;23.278;2023-05-23T06:02:40;16.93;;;11.67;;
6131;SDS011;3097;42.692;23.278;2023-05-23T06:05:10;15.50;;;10.23;;
6131;SDS011;3097;42.692;23.278;2023-05-23T06:07:40;16.30;;;11.37;;
6131;SDS011;3097;42.692;23.278;2023-05-23T06:10:07;18.60;;;11.63;;
6131;SDS011;3097;42.692;23.278;2023-05-23T06:12:36;16.07;;;11.60;;
6131;SDS011;3097;42.692;23.278;2023-05-23T06:15:01;19.40;;;11.67;;
6131;SDS011;3097;42.692;23.278;2023-05-23T06:17:27;16.57;;;11.97;;
6131;SDS011;3097;42.692;23.278;2023-05-23T06:19:52;19.57;;;12.27;;
6131;SDS011;3097;42.692;23.278;2023-05-23T06:22:17;17.13;;;11.93;;
6131;SDS011;3097;42.692;23.278;2023-05-23T06:24:43;17.70;;;12.10;;
6131;SDS011;3097;42.692;23.278;2023-05-23T06:27:08;21.33;;;11.90;;
6131;SDS011;3097;42.692;23.278;2023-05-23T06:29:34;21.83;;;13.37;;
6131;SDS011;3097;42.692;23.278;2023-05-23T06:32:00;18.40;;;12.80;;
6131;SDS011;3097;42.692;23.278;2023-05-23T06:34:26;16.93;;;12.70;;
6131;SDS011;3097;42.692;23.278;2023-05-23T06:36:52;17.97;;;12.50;;
6131;SDS011;3097;42.692;23.278;2023-05-23T06:39:17;19.50;;;13.53;;
6131;SDS011;3097;42.692;23.278;2023-05-23T06:41:42;18.27;;;12.93;;
6131;SDS011;3097;42.692;23.278;2023-05-23T06:44:08;18.53;;;13.40;;
6131;SDS011;3097;42.692;23.278;2023-05-23T06:46:33;19.30;;;13.17;;
6131;SDS011;3097;42.692;23.278;2023-05-23T06:48:59;19.57;;;12.50;;
6131;SDS011;3097;42.692;23.278;2023-05-23T06:51:24;19.83;;;13.30;;
6131;SDS011;3097;42.692;23.278;2023-05-23T06:53:50;16.43;;;12.83;;
6131;SDS011;3097;42.692;23.278;2023-05-23T06:56:15;17.60;;;12.87;;
6131;SDS011;3097;42.692;23.278;2023-05-23T06:58:41;20.43;;;13.03;;
6131;SDS011;3097;42.692;23.278;2023-05-23T07:01:06;20.03;;;13.43;;
6131;SDS011;3097;42.692;23.278;2023-05-23T07:03:31;17.47;;;13.47;;
6131;SDS011;3097;42.692;23.278;2023-05-23T07:05:57;19.80;;;12.83;;
6131;SDS011;3097;42.692;23.278;2023-05-23T07:08:22;17.53;;;12.77;;
6131;SDS011;3097;42.692;23.278;2023-05-23T07:10:48;13.93;;;11.63;;
6131;SDS011;3097;42.692;23.278;2023-05-23T07:13:13;15.10;;;11.83;;
6131;SDS011;3097;42.692;23.278;2023-05-23T07:15:39;13.93;;;11.77;;
6131;SDS011;3097;42.692;23.278;2023-05-23T07:18:05;15.80;;;12.03;;
6131;SDS011;3097;42.692;23.278;2023-05-23T07:20:31;14.93;;;12.30;;
6131;SDS011;3097;42.692;23.278;2023-05-23T07:22:58;16.50;;;12.70;;
6131;SDS011;3097;42.692;23.278;2023-05-23T07:25:24;16.47;;;13.10;;
6131;SDS011;3097;42.692;23.278;2023-05-23T07:27:50;16.37;;;12.93;;
6131;SDS011;3097;42.692;23.278;2023-05-23T07:30:18;15.23;;;12.43;;
6131;SDS011;3097;42.692;23.278;2023-05-23T07:32:45;17.53;;;12.40;;
6131;SDS011;3097;42.692;23.278;2023-05-23T07:35:12;17.80;;;13.50;;
6131;SDS011;3097;42.692;23.278;2023-05-23T07:37:38;20.43;;;14.50;;
6131;SDS011;3097;42.692;23.278;2023-05-23T07:40:03;19.17;;;14.93;;
6131;SDS011;3097;42.692;23.278;2023-05-23T07:42:29;18.93;;;14.37;;
6131;SDS011;3097;42.692;23.278;2023-05-23T07:44:55;18.67;;;14.40;;
6131;SDS011;3097;42.692;23.278;2023-05-23T07:47:20;21.80;;;15.53;;
6131;SDS011;3097;42.692;23.278;2023-05-23T07:49:46;24.03;;;16.83;;
6131;SDS011;3097;42.692;23.278;2023-05-23T07:52:11;21.10;;;16.30;;
6131;SDS011;3097;42.692;23.278;2023-05-23T07:54:37;25.93;;;17.00;;
6131;SDS011;3097;42.692;23.278;2023-05-23T07:57:02;24.93;;;16.83;;
6131;SDS011;3097;42.692;23.278;2023-05-23T07:59:28;24.10;;;16.63;;
6131;SDS011;3097;42.692;23.278;2023-05-23T08:01:54;25.90;;;17.60;;
6131;SDS011;3097;42.692;23.278;2023-05-23T08:04:19;24.83;;;17.27;;
6131;SDS011;3097;42.692;23.278;2023-05-23T08:06:45;34.33;;;17.57;;
6131;SDS011;3097;42.692;23.278;2023-05-23T08:09:11;25.57;;;16.80;;
6131;SDS011;3097;42.692;23.278;2023-05-23T08:11:37;29.70;;;17.47;;
6131;SDS011;3097;42.692;23.278;2023-05-23T08:14:02;27.43;;;18.07;;
6131;SDS011;3097;42.692;23.278;2023-05-23T08:16:28;30.73;;;18.20;;
6131;SDS011;3097;42.692;23.278;2023-05-23T08:18:53;31.30;;;18.53;;
6131;SDS011;3097;42.692;23.278;2023-05-23T08:21:18;29.27;;;17.70;;
6131;SDS011;3097;42.692;23.278;2023-05-23T08:23:44;33.43;;;18.17;;
6131;SDS011;3097;42.692;23.278;2023-05-23T08:26:09;35.57;;;19.73;;
6131;SDS011;3097;42.692;23.278;2023-05-23T08:28:35;33.23;;;18.50;;
6131;SDS011;3097;42.692;23.278;2023-05-23T08:31:00;23.87;;;16.97;;
6131;SDS011;3097;42.692;23.278;2023-05-23T08:33:26;27.50;;;18.17;;
6131;SDS011;3097;42.692;23.278;2023-05-23T08:35:51;31.27;;;17.53;;
6131;SDS011;3097;42.692;23.278;2023-05-23T08:38:16;30.40;;;16.70;;
6131;SDS011;3097;42.692;23.278;2023-05-23T08:40:48;31.57;;;16.97;;
6131;SDS011;3097;42.692;23.278;2023-05-23T08:43:18;26.83;;;17.13;;
6131;SDS011;3097;42.692;23.278;2023-05-23T08:45:44;24.10;;;16.40;;
6131;SDS011;3097;42.692;23.278;2023-05-23T08:48:10;27.47;;;16.97;;
6131;SDS011;3097;42.692;23.278;2023-05-23T08:50:40;25.10;;;15.70;;
6131;SDS011;3097;42.692;23.278;2023-05-23T08:53:08;22.17;;;14.53;;
6131;SDS011;3097;42.692;23.278;2023-05-23T08:55:34;24.00;;;15.07;;
6131;SDS011;3097;42.692;23.278;2023-05-23T08:58:02;21.77;;;15.23;;
6131;SDS011;3097;42.692;23.278;2023-05-23T09:00:28;22.83;;;15.30;;
6131;SDS011;3097;42.692;23.278;2023-05-23T09:02:54;21.53;;;14.93;;
6131;SDS011;3097;42.692;23.278;2023-05-23T09:05:21;18.43;;;13.93;;
6131;SDS011;3097;42.692;23.278;2023-05-23T09:07:46;21.20;;;14.47;;
6131;SDS011;3097;42.692;23.278;2023-05-23T09:10:13;16.70;;;11.63;;
6131;SDS011;3097;42.692;23.278;2023-05-23T09:12:44;12.30;;;10.67;;
6131;SDS011;3097;42.692;23.278;2023-05-23T09:15:09;11.43;;;9.17;;
6131;SDS011;3097;42.692;23.278;2023-05-23T09:17:36;8.77;;;7.47;;
6131;SDS011;3097;42.692;23.278;2023-05-23T09:20:13;10.50;;;7.97;;
6131;SDS011;3097;42.692;23.278;2023-05-23T09:22:42;10.30;;;8.57;;
6131;SDS011;3097;42.692;23.278;2023-05-23T09:25:11;7.63;;;6.93;;
6131;SDS011;3097;42.692;23.278;2023-05-23T09:27:36;7.97;;;5.67;;
6131;SDS011;3097;42.692;23.278;2023-05-23T09:30:05;6.67;;;5.50;;
6131;SDS011;3097;42.692;23.278;2023-05-23T09:32:32;6.07;;;5.33;;
6131;SDS011;3097;42.692;23.278;2023-05-23T09:35:03;5.13;;;4.73;;
6131;SDS011;3097;42.692;23.278;2023-05-23T09:37:34;5.67;;;5.17;;
6131;SDS011;3097;42.692;23.278;2023-05-23T09:40:11;11.13;;;5.20;;
6131;SDS011;3097;42.692;23.278;2023-05-23T09:42:44;6.33;;;5.70;;
6131;SDS011;3097;42.692;23.278;2023-05-23T09:45:15;6.30;;;4.93;;
6131;SDS011;3097;42.692;23.278;2023-05-23T09:47:50;8.80;;;5.43;;
6131;SDS011;3097;42.692;23.278;2023-05-23T09:50:16;5.50;;;5.00;;
6131;SDS011;3097;42.692;23.278;2023-05-23T09:52:42;5.60;;;5.10;;
6131;SDS011;3097;42.692;23.278;2023-05-23T09:55:08;5.90;;;5.00;;
6131;SDS011;3097;42.692;23.278;2023-05-23T09:57:34;6.63;;;5.20;;
6131;SDS011;3097;42.692;23.278;2023-05-23T10:00:02;5.10;;;4.70;;
6131;SDS011;3097;42.692;23.278;2023-05-23T10:05:30;5.37;;;4.70;;
6131;SDS011;3097;42.692;23.278;2023-05-23T10:08:00;5.10;;;4.70;;
6131;SDS011;3097;42.692;23.278;2023-05-23T10:10:29;5.30;;;4.90;;
6131;SDS011;3097;42.692;23.278;2023-05-23T10:12:56;5.20;;;4.80;;
6131;SDS011;3097;42.692;23.278;2023-05-23T10:15:23;5.73;;;5.20;;
6131;SDS011;3097;42.692;23.278;2023-05-23T10:20:29;6.00;;;5.20;;
6131;SDS011;3097;42.692;23.278;2023-05-23T10:22:58;4.83;;;4.53;;
6131;SDS011;3097;42.692;23.278;2023-05-23T10:25:24;5.07;;;4.77;;
6131;SDS011;3097;42.692;23.278;2023-05-23T10:27:52;4.80;;;4.37;;
6131;SDS011;3097;42.692;23.278;2023-05-23T10:30:26;4.80;;;4.33;;
6131;SDS011;3097;42.692;23.278;2023-05-23T10:32:56;5.17;;;4.67;;
6131;SDS011;3097;42.692;23.278;2023-05-23T10:38:33;5.23;;;4.73;;
6131;SDS011;3097;42.692;23.278;2023-05-23T10:41:10;4.73;;;4.33;;
6131;SDS011;3097;42.692;23.278;2023-05-23T10:43:48;8.23;;;4.80;;
6131;SDS011;3097;42.692;23.278;2023-05-23T10:46:21;5.43;;;5.00;;
6131;SDS011;3097;42.692;23.278;2023-05-23T10:48:47;6.60;;;3.90;;
6131;SDS011;3097;42.692;23.278;2023-05-23T10:51:13;5.03;;;4.30;;
6131;SDS011;3097;42.692;23.278;2023-05-23T10:53:40;5.20;;;4.37;;
6131;SDS011;3097;42.692;23.278;2023-05-23T10:56:07;4.57;;;4.17;;
6131;SDS011;3097;42.692;23.278;2023-05-23T10:58:35;4.80;;;4.30;;
6131;SDS011;3097;42.692;23.278;2023-05-23T11:01:06;5.17;;;4.47;;
6131;SDS011;3097;42.692;23.278;2023-05-23T11:09:16;3.93;;;3.63;;
6131;SDS011;3097;42.692;23.278;2023-05-23T11:14:18;4.37;;;3.97;;
6131;SDS011;3097;42.692;23.278;2023-05-23T11:16:59;5.13;;;4.00;;
6131;SDS011;3097;42.692;23.278;2023-05-23T11:19:37;3.63;;;3.43;;
6131;SDS011;3097;42.692;23.278;2023-05-23T11:22:03;4.03;;;3.73;;
6131;SDS011;3097;42.692;23.278;2023-05-23T11:27:43;6.00;;;4.03;;
6131;SDS011;3097;42.692;23.278;2023-05-23T11:30:11;4.33;;;4.03;;
6131;SDS011;3097;42.692;23.278;2023-05-23T11:32:38;5.00;;;4.30;;
6131;SDS011;3097;42.692;23.278;2023-05-23T11:35:04;4.50;;;4.20;;
6131;SDS011;3097;42.692;23.278;2023-05-23T11:37:31;4.63;;;4.23;;
6131;SDS011;3097;42.692;23.278;2023-05-23T11:39:57;6.27;;;4.40;;
6131;SDS011;3097;42.692;23.278;2023-05-23T11:42:23;6.27;;;4.40;;
6131;SDS011;3097;42.692;23.278;2023-05-23T11:44:49;4.40;;;4.10;;
6131;SDS011;3097;42.692;23.278;2023-05-23T11:47:15;4.70;;;4.40;;
6131;SDS011;3097;42.692;23.278;2023-05-23T11:49:43;4.40;;;4.00;;
6131;SDS011;3097;42.692;23.278;2023-05-23T11:52:10;5.13;;;4.40;;
6131;SDS011;3097;42.692;23.278;2023-05-23T11:54:36;4.37;;;4.07;;
6131;SDS011;3097;42.692;23.278;2023-05-23T11:57:05;4.40;;;4.00;;
6131;SDS011;3097;42.692;23.278;2023-05-23T11:59:30;5.03;;;4.53;;
6131;SDS011;3097;42.692;23.278;2023-05-23T12:01:56;4.80;;;4.40;;
6131;SDS011;3097;42.692;23.278;2023-05-23T12:04:21;5.00;;;4.30;;
6131;SDS011;3097;42.692;23.278;2023-05-23T12:06:50;4.13;;;3.80;;
6131;SDS011;3097;42.692;23.278;2023-05-23T12:09:15;6.33;;;4.50;;
6131;SDS011;3097;42.692;23.278;2023-05-23T12:11:41;4.60;;;4.17;;
6131;SDS011;3097;42.692;23.278;2023-05-23T12:14:08;4.70;;;4.40;;
6131;SDS011;3097;42.692;23.278;2023-05-23T12:16:38;4.90;;;4.40;;
6131;SDS011;3097;42.692;23.278;2023-05-23T12:19:03;4.50;;;4.13;;
6131;SDS011;3097;42.692;23.278;2023-05-23T12:21:39;4.33;;;4.03;;
6131;SDS011;3097;42.692;23.278;2023-05-23T12:24:15;4.73;;;4.37;;
6131;SDS011;3097;42.692;23.278;2023-05-23T12:26:47;4.13;;;3.83;;
6131;SDS011;3097;42.692;23.278;2023-05-23T12:29:28;5.67;;;4.00;;
6131;SDS011;3097;42.692;23.278;2023-05-23T12:31:54;5.50;;;3.40;;
6131;SDS011;3097;42.692;23.278;2023-05-23T12:34:22;4.23;;;3.93;;
6131;SDS011;3097;42.692;23.278;2023-05-23T12:36:48;4.80;;;4.30;;
6131;SDS011;3097;42.692;23.278;2023-05-23T12:39:14;4.87;;;4.47;;
6131;SDS011;3097;42.692;23.278;2023-05-23T12:41:40;6.77;;;4.17;;
6131;SDS011;3097;42.692;23.278;2023-05-23T12:44:08;4.40;;;4.00;;
6131;SDS011;3097;42.692;23.278;2023-05-23T12:46:34;4.50;;;4.10;;
6131;SDS011;3097;42.692;23.278;2023-05-23T12:48:59;4.70;;;4.30;;
6131;SDS011;3097;42.692;23.278;2023-05-23T12:51:25;4.77;;;4.37;;
6131;SDS011;3097;42.692;23.278;2023-05-23T12:53:50;4.67;;;4.27;;
6131;SDS011;3097;42.692;23.278;2023-05-23T12:56:16;4.40;;;4.10;;
6131;SDS011;3097;42.692;23.278;2023-05-23T12:58:41;4.20;;;3.80;;
6131;SDS011;3097;42.692;23.278;2023-05-23T13:01:07;4.13;;;3.83;;
6131;SDS011;3097;42.692;23.278;2023-05-23T13:03:33;4.60;;;4.20;;
6131;SDS011;3097;42.692;23.278;2023-05-23T13:05:58;5.30;;;3.97;;
6131;SDS011;3097;42.692;23.278;2023-05-23T13:08:25;11.43;;;3.80;;
6131;SDS011;3097;42.692;23.278;2023-05-23T13:10:54;4.63;;;4.30;;
6131;SDS011;3097;42.692;23.278;2023-05-23T13:13:19;3.97;;;3.67;;
6131;SDS011;3097;42.692;23.278;2023-05-23T13:15:46;4.40;;;4.00;;
6131;SDS011;3097;42.692;23.278;2023-05-23T13:18:11;3.80;;;3.60;;
6131;SDS011;3097;42.692;23.278;2023-05-23T13:20:37;3.90;;;3.60;;
6131;SDS011;3097;42.692;23.278;2023-05-23T13:23:02;4.13;;;3.53;;
6131;SDS011;3097;42.692;23.278;2023-05-23T13:25:28;4.37;;;4.07;;
6131;SDS011;3097;42.692;23.278;2023-05-23T13:27:54;4.20;;;3.90;;
6131;SDS011;3097;42.692;23.278;2023-05-23T13:30:20;5.23;;;3.80;;
6131;SDS011;3097;42.692;23.278;2023-05-23T13:32:47;3.90;;;3.60;;
6131;SDS011;3097;42.692;23.278;2023-05-23T13:35:12;4.00;;;3.70;;
6131;SDS011;3097;42.692;23.278;2023-05-23T13:37:38;4.53;;;3.83;;
6131;SDS011;3097;42.692;23.278;2023-05-23T13:40:04;4.07;;;3.87;;
6131;SDS011;3097;42.692;23.278;2023-05-23T13:42:30;4.90;;;4.07;;
6131;SDS011;3097;42.692;23.278;2023-05-23T13:44:55;6.27;;;3.83;;
6131;SDS011;3097;42.692;23.278;2023-05-23T13:47:22;5.17;;;4.20;;
6131;SDS011;3097;42.692;23.278;2023-05-23T13:49:47;4.47;;;4.17;;
6131;SDS011;3097;42.692;23.278;2023-05-23T13:52:13;4.43;;;4.13;;
6131;SDS011;3097;42.692;23.278;2023-05-23T13:54:39;4.10;;;3.80;;
6131;SDS011;3097;42.692;23.278;2023-05-23T13:57:05;6.60;;;4.40;;
6131;SDS011;3097;42.692;23.278;2023-05-23T13:59:31;4.43;;;4.03;;
6131;SDS011;3097;42.692;23.278;2023-05-23T14:01:57;4.00;;;3.80;;
6131;SDS011;3097;42.692;23.278;2023-05-23T14:04:23;4.47;;;3.90;;
6131;SDS011;3097;42.692;23.278;2023-05-23T14:06:48;3.70;;;3.30;;
6131;SDS011;3097;42.692;23.278;2023-05-23T14:09:14;4.10;;;3.80;;
6131;SDS011;3097;42.692;23.278;2023-05-23T14:11:40;3.83;;;3.63;;
6131;SDS011;3097;42.692;23.278;2023-05-23T14:14:05;4.10;;;3.80;;
6131;SDS011;3097;42.692;23.278;2023-05-23T14:16:31;4.70;;;4.40;;
6131;SDS011;3097;42.692;23.278;2023-05-23T14:18:56;4.70;;;4.30;;
6131;SDS011;3097;42.692;23.278;2023-05-23T14:21:22;4.13;;;3.73;;
6131;SDS011;3097;42.692;23.278;2023-05-23T14:23:47;5.60;;;4.50;;
6131;SDS011;3097;42.692;23.278;2023-05-23T14:26:13;6.63;;;4.63;;
6131;SDS011;3097;42.692;23.278;2023-05-23T14:28:38;5.03;;;4.70;;
6131;SDS011;3097;42.692;23.278;2023-05-23T14:31:04;4.50;;;4.20;;
6131;SDS011;3097;42.692;23.278;2023-05-23T14:33:30;4.00;;;3.73;;
6131;SDS011;3097;42.692;23.278;2023-05-23T14:35:55;5.43;;;4.40;;
6131;SDS011;3097;42.692;23.278;2023-05-23T14:38:21;4.33;;;4.03;;
6131;SDS011;3097;42.692;23.278;2023-05-23T14:40:46;7.10;;;4.20;;
6131;SDS011;3097;42.692;23.278;2023-05-23T14:43:13;4.93;;;4.47;;
6131;SDS011;3097;42.692;23.278;2023-05-23T14:45:39;6.00;;;5.40;;
6131;SDS011;3097;42.692;23.278;2023-05-23T14:48:05;5.30;;;4.90;;
6131;SDS011;3097;42.692;23.278;2023-05-23T14:50:31;4.80;;;4.40;;
6131;SDS011;3097;42.692;23.278;2023-05-23T14:52:56;4.43;;;4.13;;
6131;SDS011;3097;42.692;23.278;2023-05-23T14:55:23;4.53;;;4.10;;
6131;SDS011;3097;42.692;23.278;2023-05-23T14:57:49;4.73;;;4.33;;
6131;SDS011;3097;42.692;23.278;2023-05-23T15:00:15;4.87;;;4.37;;
6131;SDS011;3097;42.692;23.278;2023-05-23T15:02:41;4.67;;;4.27;;
6131;SDS011;3097;42.692;23.278;2023-05-23T15:05:07;4.40;;;4.03;;
6131;SDS011;3097;42.692;23.278;2023-05-23T15:07:32;5.67;;;5.13;;